sensor_id;sensor_type;location;lat;lon;timestamp;P1;durP1;ratioP1;P2;durP2;ratioP2
37411;SDS011;23278;52.110;6.050;2024-01-27T00:00:07;15.68;;;3.95;;
37411;SDS011;23278;52.110;6.050;2024-01-27T00:02:37;15.05;;;2.50;;
37411;SDS011;23278;52.110;6.050;2024-01-27T00:05:03;12.48;;;2.67;;
37411;SDS011;23278;52.110;6.050;2024-01-27T00:07:29;11.82;;;2.50;;
37411;SDS011;23278;52.110;6.050;2024-01-27T00:09:55;20.25;;;3.30;;
37411;SDS011;23278;52.110;6.050;2024-01-27T00:12:21;16.63;;;3.38;;
37411;SDS011;23278;52.110;6.050;2024-01-27T00:14:47;15.45;;;3.30;;
37411;SDS011;23278;52.110;6.050;2024-01-27T00:17:13;10.00;;;2.53;;
37411;SDS011;23278;52.110;6.050;2024-01-27T00:19:39;11.57;;;3.80;;
37411;SDS011;23278;52.110;6.050;2024-01-27T00:22:06;17.38;;;3.63;;
37411;SDS011;23278;52.110;6.050;2024-01-27T00:24:32;8.40;;;2.08;;
37411;SDS011;23278;52.110;6.050;2024-01-27T00:26:59;21.60;;;4.13;;
37411;SDS011;23278;52.110;6.050;2024-01-27T00:29:25;12.25;;;2.72;;
37411;SDS011;23278;52.110;6.050;2024-01-27T00:31:51;14.48;;;2.70;;
37411;SDS011;23278;52.110;6.050;2024-01-27T00:34:19;14.25;;;3.50;;
37411;SDS011;23278;52.110;6.050;2024-01-27T00:36:46;14.90;;;5.20;;
37411;SDS011;23278;52.110;6.050;2024-01-27T00:39:17;14.43;;;2.65;;
37411;SDS011;23278;52.110;6.050;2024-01-27T00:41:44;17.52;;;2.17;;
37411;SDS011;23278;52.110;6.050;2024-01-27T00:44:12;11.80;;;2.20;;
37411;SDS011;23278;52.110;6.050;2024-01-27T00:46:38;14.05;;;3.35;;
37411;SDS011;23278;52.110;6.050;2024-01-27T00:49:04;15.68;;;2.53;;
37411;SDS011;23278;52.110;6.050;2024-01-27T00:51:30;14.20;;;2.67;;
37411;SDS011;23278;52.110;6.050;2024-01-27T00:53:56;12.15;;;2.22;;
37411;SDS011;23278;52.110;6.050;2024-01-27T00:56:22;22.40;;;2.95;;
37411;SDS011;23278;52.110;6.050;2024-01-27T00:58:48;19.08;;;2.75;;
37411;SDS011;23278;52.110;6.050;2024-01-27T01:01:14;16.90;;;2.88;;
37411;SDS011;23278;52.110;6.050;2024-01-27T01:03:40;16.05;;;3.05;;
37411;SDS011;23278;52.110;6.050;2024-01-27T01:06:06;13.52;;;2.97;;
37411;SDS011;23278;52.110;6.050;2024-01-27T01:08:32;16.45;;;2.45;;
37411;SDS011;23278;52.110;6.050;2024-01-27T01:10:58;10.77;;;2.42;;
37411;SDS011;23278;52.110;6.050;2024-01-27T01:13:24;13.57;;;1.80;;
37411;SDS011;23278;52.110;6.050;2024-01-27T01:15:50;16.13;;;2.80;;
37411;SDS011;23278;52.110;6.050;2024-01-27T01:18:15;9.80;;;2.92;;
37411;SDS011;23278;52.110;6.050;2024-01-27T01:20:42;17.10;;;2.35;;
37411;SDS011;23278;52.110;6.050;2024-01-27T01:23:07;17.92;;;3.80;;
37411;SDS011;23278;52.110;6.050;2024-01-27T01:25:33;18.38;;;3.92;;
37411;SDS011;23278;52.110;6.050;2024-01-27T01:27:59;11.15;;;2.90;;
37411;SDS011;23278;52.110;6.050;2024-01-27T01:30:25;11.40;;;2.42;;
37411;SDS011;23278;52.110;6.050;2024-01-27T01:32:51;12.18;;;2.75;;
37411;SDS011;23278;52.110;6.050;2024-01-27T01:35:17;20.80;;;3.25;;
37411;SDS011;23278;52.110;6.050;2024-01-27T01:37:43;7.28;;;2.58;;
37411;SDS011;23278;52.110;6.050;2024-01-27T01:40:09;16.30;;;3.25;;
37411;SDS011;23278;52.110;6.050;2024-01-27T01:42:35;16.52;;;3.38;;
37411;SDS011;23278;52.110;6.050;2024-01-27T01:45:01;24.02;;;3.75;;
37411;SDS011;23278;52.110;6.050;2024-01-27T01:47:27;11.38;;;2.95;;
37411;SDS011;23278;52.110;6.050;2024-01-27T01:49:54;21.75;;;3.33;;
37411;SDS011;23278;52.110;6.050;2024-01-27T01:52:21;11.20;;;2.55;;
37411;SDS011;23278;52.110;6.050;2024-01-27T01:54:50;14.52;;;2.50;;
37411;SDS011;23278;52.110;6.050;2024-01-27T01:57:16;17.08;;;4.03;;
37411;SDS011;23278;52.110;6.050;2024-01-27T01:59:42;16.00;;;3.00;;
37411;SDS011;23278;52.110;6.050;2024-01-27T02:02:08;16.25;;;5.03;;
37411;SDS011;23278;52.110;6.050;2024-01-27T02:04:41;17.58;;;2.80;;
37411;SDS011;23278;52.110;6.050;2024-01-27T02:07:07;18.23;;;2.90;;
37411;SDS011;23278;52.110;6.050;2024-01-27T02:09:34;10.25;;;2.53;;
37411;SDS011;23278;52.110;6.050;2024-01-27T02:12:00;18.08;;;3.35;;
37411;SDS011;23278;52.110;6.050;2024-01-27T02:14:26;27.45;;;3.53;;
37411;SDS011;23278;52.110;6.050;2024-01-27T02:16:56;14.38;;;3.70;;
37411;SDS011;23278;52.110;6.050;2024-01-27T02:19:22;12.57;;;2.38;;
37411;SDS011;23278;52.110;6.050;2024-01-27T02:21:49;15.88;;;3.10;;
37411;SDS011;23278;52.110;6.050;2024-01-27T02:24:15;20.38;;;3.33;;
37411;SDS011;23278;52.110;6.050;2024-01-27T02:26:41;11.55;;;2.45;;
37411;SDS011;23278;52.110;6.050;2024-01-27T02:29:07;8.38;;;2.97;;
37411;SDS011;23278;52.110;6.050;2024-01-27T02:31:33;10.82;;;2.83;;
37411;SDS011;23278;52.110;6.050;2024-01-27T02:33:59;11.35;;;2.60;;
37411;SDS011;23278;52.110;6.050;2024-01-27T02:36:25;17.75;;;3.63;;
37411;SDS011;23278;52.110;6.050;2024-01-27T02:38:50;17.20;;;3.60;;
37411;SDS011;23278;52.110;6.050;2024-01-27T02:41:16;13.48;;;2.45;;
37411;SDS011;23278;52.110;6.050;2024-01-27T02:43:42;17.42;;;3.63;;
37411;SDS011;23278;52.110;6.050;2024-01-27T02:46:10;10.60;;;3.15;;
37411;SDS011;23278;52.110;6.050;2024-01-27T02:48:40;11.00;;;4.75;;
37411;SDS011;23278;52.110;6.050;2024-01-27T02:51:09;9.90;;;2.90;;
37411;SDS011;23278;52.110;6.050;2024-01-27T02:53:35;15.18;;;3.35;;
37411;SDS011;23278;52.110;6.050;2024-01-27T02:56:01;17.13;;;3.08;;
37411;SDS011;23278;52.110;6.050;2024-01-27T02:58:27;12.68;;;2.92;;
37411;SDS011;23278;52.110;6.050;2024-01-27T03:00:53;18.70;;;4.00;;
37411;SDS011;23278;52.110;6.050;2024-01-27T03:03:19;11.98;;;2.22;;
37411;SDS011;23278;52.110;6.050;2024-01-27T03:05:44;18.63;;;3.25;;
37411;SDS011;23278;52.110;6.050;2024-01-27T03:08:10;18.70;;;3.45;;
37411;SDS011;23278;52.110;6.050;2024-01-27T03:10:36;12.63;;;3.03;;
37411;SDS011;23278;52.110;6.050;2024-01-27T03:13:02;13.30;;;3.35;;
37411;SDS011;23278;52.110;6.050;2024-01-27T03:15:28;19.55;;;4.95;;
37411;SDS011;23278;52.110;6.050;2024-01-27T03:17:54;11.82;;;2.75;;
37411;SDS011;23278;52.110;6.050;2024-01-27T03:20:20;9.55;;;3.17;;
37411;SDS011;23278;52.110;6.050;2024-01-27T03:22:46;12.98;;;2.97;;
37411;SDS011;23278;52.110;6.050;2024-01-27T03:25:13;8.50;;;2.25;;
37411;SDS011;23278;52.110;6.050;2024-01-27T03:27:39;16.05;;;2.65;;
37411;SDS011;23278;52.110;6.050;2024-01-27T03:30:05;9.10;;;2.22;;
37411;SDS011;23278;52.110;6.050;2024-01-27T03:32:32;11.15;;;2.67;;
37411;SDS011;23278;52.110;6.050;2024-01-27T03:35:02;7.72;;;2.55;;
37411;SDS011;23278;52.110;6.050;2024-01-27T03:37:28;17.15;;;3.33;;
37411;SDS011;23278;52.110;6.050;2024-01-27T03:39:54;8.70;;;2.35;;
37411;SDS011;23278;52.110;6.050;2024-01-27T03:42:21;8.65;;;3.20;;
37411;SDS011;23278;52.110;6.050;2024-01-27T03:44:46;14.82;;;2.85;;
37411;SDS011;23278;52.110;6.050;2024-01-27T03:47:13;15.40;;;3.03;;
37411;SDS011;23278;52.110;6.050;2024-01-27T03:49:39;14.23;;;2.90;;
37411;SDS011;23278;52.110;6.050;2024-01-27T03:52:05;13.73;;;2.65;;
37411;SDS011;23278;52.110;6.050;2024-01-27T03:54:31;14.43;;;3.35;;
37411;SDS011;23278;52.110;6.050;2024-01-27T03:56:57;12.90;;;3.78;;
37411;SDS011;23278;52.110;6.050;2024-01-27T03:59:23;14.88;;;3.42;;
37411;SDS011;23278;52.110;6.050;2024-01-27T04:01:49;16.15;;;3.78;;
37411;SDS011;23278;52.110;6.050;2024-01-27T04:04:15;13.00;;;3.90;;
37411;SDS011;23278;52.110;6.050;2024-01-27T04:06:41;15.82;;;4.70;;
37411;SDS011;23278;52.110;6.050;2024-01-27T04:09:08;14.18;;;3.85;;
37411;SDS011;23278;52.110;6.050;2024-01-27T04:11:34;13.13;;;3.67;;
37411;SDS011;23278;52.110;6.050;2024-01-27T04:14:01;12.75;;;4.32;;
37411;SDS011;23278;52.110;6.050;2024-01-27T04:16:29;15.55;;;4.47;;
37411;SDS011;23278;52.110;6.050;2024-01-27T04:18:55;20.77;;;5.35;;
37411;SDS011;23278;52.110;6.050;2024-01-27T04:21:22;17.00;;;4.63;;
37411;SDS011;23278;52.110;6.050;2024-01-27T04:23:48;18.75;;;5.18;;
37411;SDS011;23278;52.110;6.050;2024-01-27T04:26:14;18.50;;;5.00;;
37411;SDS011;23278;52.110;6.050;2024-01-27T04:28:40;15.40;;;3.88;;
37411;SDS011;23278;52.110;6.050;2024-01-27T04:31:06;10.70;;;3.72;;
37411;SDS011;23278;52.110;6.050;2024-01-27T04:33:32;9.77;;;3.42;;
37411;SDS011;23278;52.110;6.050;2024-01-27T04:35:58;16.13;;;4.70;;
37411;SDS011;23278;52.110;6.050;2024-01-27T04:38:24;14.93;;;4.30;;
37411;SDS011;23278;52.110;6.050;2024-01-27T04:40:50;15.23;;;4.22;;
37411;SDS011;23278;52.110;6.050;2024-01-27T04:43:20;19.65;;;4.72;;
37411;SDS011;23278;52.110;6.050;2024-01-27T04:45:47;20.52;;;4.75;;
37411;SDS011;23278;52.110;6.050;2024-01-27T04:48:14;13.75;;;4.82;;
37411;SDS011;23278;52.110;6.050;2024-01-27T04:50:40;12.20;;;4.78;;
37411;SDS011;23278;52.110;6.050;2024-01-27T04:53:06;14.43;;;5.18;;
37411;SDS011;23278;52.110;6.050;2024-01-27T04:55:32;17.45;;;5.45;;
37411;SDS011;23278;52.110;6.050;2024-01-27T04:57:58;12.57;;;5.35;;
37411;SDS011;23278;52.110;6.050;2024-01-27T05:00:25;20.33;;;5.93;;
37411;SDS011;23278;52.110;6.050;2024-01-27T05:02:53;21.05;;;5.28;;
37411;SDS011;23278;52.110;6.050;2024-01-27T05:05:19;13.82;;;5.22;;
37411;SDS011;23278;52.110;6.050;2024-01-27T05:07:45;18.70;;;4.93;;
37411;SDS011;23278;52.110;6.050;2024-01-27T05:10:12;16.05;;;5.57;;
37411;SDS011;23278;52.110;6.050;2024-01-27T05:12:38;14.18;;;5.75;;
37411;SDS011;23278;52.110;6.050;2024-01-27T05:15:04;22.27;;;6.38;;
37411;SDS011;23278;52.110;6.050;2024-01-27T05:17:30;22.90;;;5.88;;
37411;SDS011;23278;52.110;6.050;2024-01-27T05:19:57;15.35;;;6.80;;
37411;SDS011;23278;52.110;6.050;2024-01-27T05:22:23;18.30;;;6.15;;
37411;SDS011;23278;52.110;6.050;2024-01-27T05:24:49;17.98;;;7.22;;
37411;SDS011;23278;52.110;6.050;2024-01-27T05:27:15;26.55;;;7.22;;
37411;SDS011;23278;52.110;6.050;2024-01-27T05:29:41;23.10;;;7.25;;
37411;SDS011;23278;52.110;6.050;2024-01-27T05:32:08;19.08;;;7.63;;
37411;SDS011;23278;52.110;6.050;2024-01-27T05:34:33;19.02;;;7.05;;
37411;SDS011;23278;52.110;6.050;2024-01-27T05:36:59;23.13;;;7.95;;
37411;SDS011;23278;52.110;6.050;2024-01-27T05:39:25;16.67;;;7.72;;
37411;SDS011;23278;52.110;6.050;2024-01-27T05:41:51;19.55;;;8.50;;
37411;SDS011;23278;52.110;6.050;2024-01-27T05:44:17;27.38;;;7.43;;
37411;SDS011;23278;52.110;6.050;2024-01-27T05:46:43;22.73;;;8.23;;
37411;SDS011;23278;52.110;6.050;2024-01-27T05:49:09;11.77;;;7.43;;
37411;SDS011;23278;52.110;6.050;2024-01-27T05:51:35;26.23;;;9.57;;
37411;SDS011;23278;52.110;6.050;2024-01-27T05:54:01;20.52;;;8.88;;
37411;SDS011;23278;52.110;6.050;2024-01-27T05:56:27;15.45;;;7.50;;
37411;SDS011;23278;52.110;6.050;2024-01-27T05:58:53;25.73;;;10.77;;
37411;SDS011;23278;52.110;6.050;2024-01-27T06:01:19;23.45;;;9.57;;
37411;SDS011;23278;52.110;6.050;2024-01-27T06:03:45;18.17;;;8.80;;
37411;SDS011;23278;52.110;6.050;2024-01-27T06:06:11;27.15;;;10.63;;
37411;SDS011;23278;52.110;6.050;2024-01-27T06:08:37;18.98;;;9.48;;
37411;SDS011;23278;52.110;6.050;2024-01-27T06:11:03;24.20;;;9.65;;
37411;SDS011;23278;52.110;6.050;2024-01-27T06:13:29;17.40;;;7.75;;
37411;SDS011;23278;52.110;6.050;2024-01-27T06:15:55;22.02;;;9.85;;
37411;SDS011;23278;52.110;6.050;2024-01-27T06:18:21;15.93;;;8.80;;
37411;SDS011;23278;52.110;6.050;2024-01-27T06:20:48;19.48;;;9.48;;
37411;SDS011;23278;52.110;6.050;2024-01-27T06:23:14;20.55;;;8.27;;
37411;SDS011;23278;52.110;6.050;2024-01-27T06:25:40;24.38;;;9.55;;
37411;SDS011;23278;52.110;6.050;2024-01-27T06:28:06;17.27;;;7.68;;
37411;SDS011;23278;52.110;6.050;2024-01-27T06:30:31;23.25;;;8.85;;
37411;SDS011;23278;52.110;6.050;2024-01-27T06:32:57;21.65;;;9.30;;
37411;SDS011;23278;52.110;6.050;2024-01-27T06:35:23;18.30;;;8.82;;
37411;SDS011;23278;52.110;6.050;2024-01-27T06:37:49;18.70;;;8.35;;
37411;SDS011;23278;52.110;6.050;2024-01-27T06:40:15;18.08;;;9.10;;
37411;SDS011;23278;52.110;6.050;2024-01-27T06:42:41;16.23;;;8.05;;
37411;SDS011;23278;52.110;6.050;2024-01-27T06:45:08;19.67;;;8.65;;
37411;SDS011;23278;52.110;6.050;2024-01-27T06:47:34;21.33;;;7.72;;
37411;SDS011;23278;52.110;6.050;2024-01-27T06:49:59;21.33;;;7.88;;
37411;SDS011;23278;52.110;6.050;2024-01-27T06:52:25;15.55;;;7.88;;
37411;SDS011;23278;52.110;6.050;2024-01-27T06:54:51;11.07;;;7.22;;
37411;SDS011;23278;52.110;6.050;2024-01-27T06:57:18;17.88;;;7.55;;
37411;SDS011;23278;52.110;6.050;2024-01-27T06:59:48;19.52;;;7.70;;
37411;SDS011;23278;52.110;6.050;2024-01-27T07:02:18;15.52;;;7.53;;
37411;SDS011;23278;52.110;6.050;2024-01-27T07:04:47;25.02;;;9.70;;
37411;SDS011;23278;52.110;6.050;2024-01-27T07:07:13;20.27;;;8.77;;
37411;SDS011;23278;52.110;6.050;2024-01-27T07:09:39;17.65;;;8.45;;
37411;SDS011;23278;52.110;6.050;2024-01-27T07:12:05;20.98;;;8.07;;
37411;SDS011;23278;52.110;6.050;2024-01-27T07:14:31;21.45;;;8.35;;
37411;SDS011;23278;52.110;6.050;2024-01-27T07:16:57;19.80;;;9.68;;
37411;SDS011;23278;52.110;6.050;2024-01-27T07:19:23;20.80;;;9.70;;
37411;SDS011;23278;52.110;6.050;2024-01-27T07:21:48;19.00;;;7.97;;
37411;SDS011;23278;52.110;6.050;2024-01-27T07:24:14;18.75;;;8.07;;
37411;SDS011;23278;52.110;6.050;2024-01-27T07:26:40;13.52;;;7.00;;
37411;SDS011;23278;52.110;6.050;2024-01-27T07:29:07;24.90;;;9.88;;
37411;SDS011;23278;52.110;6.050;2024-01-27T07:31:33;18.05;;;7.70;;
37411;SDS011;23278;52.110;6.050;2024-01-27T07:33:59;29.08;;;8.68;;
37411;SDS011;23278;52.110;6.050;2024-01-27T07:36:25;20.00;;;9.57;;
37411;SDS011;23278;52.110;6.050;2024-01-27T07:38:51;25.05;;;10.32;;
37411;SDS011;23278;52.110;6.050;2024-01-27T07:41:17;16.88;;;9.40;;
37411;SDS011;23278;52.110;6.050;2024-01-27T07:43:43;23.40;;;9.43;;
37411;SDS011;23278;52.110;6.050;2024-01-27T07:46:09;21.97;;;9.53;;
37411;SDS011;23278;52.110;6.050;2024-01-27T07:48:34;25.15;;;9.63;;
37411;SDS011;23278;52.110;6.050;2024-01-27T07:51:00;22.88;;;10.38;;
37411;SDS011;23278;52.110;6.050;2024-01-27T07:53:26;21.15;;;9.05;;
37411;SDS011;23278;52.110;6.050;2024-01-27T07:55:52;17.65;;;8.18;;
37411;SDS011;23278;52.110;6.050;2024-01-27T07:58:19;19.75;;;10.82;;
37411;SDS011;23278;52.110;6.050;2024-01-27T08:00:45;18.20;;;9.70;;
37411;SDS011;23278;52.110;6.050;2024-01-27T08:03:11;18.98;;;8.63;;
37411;SDS011;23278;52.110;6.050;2024-01-27T08:05:36;20.80;;;9.40;;
37411;SDS011;23278;52.110;6.050;2024-01-27T08:08:02;21.08;;;8.13;;
37411;SDS011;23278;52.110;6.050;2024-01-27T08:10:29;24.80;;;9.10;;
37411;SDS011;23278;52.110;6.050;2024-01-27T08:12:55;23.73;;;9.30;;
37411;SDS011;23278;52.110;6.050;2024-01-27T08:15:21;19.98;;;9.00;;
37411;SDS011;23278;52.110;6.050;2024-01-27T08:17:46;20.27;;;9.55;;
37411;SDS011;23278;52.110;6.050;2024-01-27T08:20:12;29.17;;;10.70;;
37411;SDS011;23278;52.110;6.050;2024-01-27T08:22:38;21.27;;;10.77;;
37411;SDS011;23278;52.110;6.050;2024-01-27T08:25:05;29.83;;;12.05;;
37411;SDS011;23278;52.110;6.050;2024-01-27T08:27:31;24.52;;;10.90;;
37411;SDS011;23278;52.110;6.050;2024-01-27T08:29:57;31.40;;;11.20;;
37411;SDS011;23278;52.110;6.050;2024-01-27T08:32:23;16.27;;;9.10;;
37411;SDS011;23278;52.110;6.050;2024-01-27T08:34:49;23.92;;;10.10;;
37411;SDS011;23278;52.110;6.050;2024-01-27T08:37:17;20.33;;;9.10;;
37411;SDS011;23278;52.110;6.050;2024-01-27T08:39:44;18.08;;;9.05;;
37411;SDS011;23278;52.110;6.050;2024-01-27T08:42:10;15.02;;;8.75;;
37411;SDS011;23278;52.110;6.050;2024-01-27T08:44:37;16.85;;;7.20;;
37411;SDS011;23278;52.110;6.050;2024-01-27T08:47:04;26.33;;;9.27;;
37411;SDS011;23278;52.110;6.050;2024-01-27T08:49:30;13.30;;;7.60;;
37411;SDS011;23278;52.110;6.050;2024-01-27T08:51:56;19.00;;;7.13;;
37411;SDS011;23278;52.110;6.050;2024-01-27T08:54:22;15.27;;;7.35;;
37411;SDS011;23278;52.110;6.050;2024-01-27T08:56:48;18.17;;;7.35;;
37411;SDS011;23278;52.110;6.050;2024-01-27T08:59:14;17.23;;;7.97;;
37411;SDS011;23278;52.110;6.050;2024-01-27T09:01:40;15.40;;;7.22;;
37411;SDS011;23278;52.110;6.050;2024-01-27T09:04:06;15.75;;;8.02;;
37411;SDS011;23278;52.110;6.050;2024-01-27T09:06:32;15.82;;;6.32;;
37411;SDS011;23278;52.110;6.050;2024-01-27T09:08:58;16.73;;;7.03;;
37411;SDS011;23278;52.110;6.050;2024-01-27T09:11:24;14.77;;;6.38;;
37411;SDS011;23278;52.110;6.050;2024-01-27T09:13:53;18.80;;;5.97;;
37411;SDS011;23278;52.110;6.050;2024-01-27T09:16:18;14.73;;;6.35;;
37411;SDS011;23278;52.110;6.050;2024-01-27T09:18:44;16.95;;;6.60;;
37411;SDS011;23278;52.110;6.050;2024-01-27T09:21:11;11.25;;;5.43;;
37411;SDS011;23278;52.110;6.050;2024-01-27T09:23:37;13.18;;;5.65;;
37411;SDS011;23278;52.110;6.050;2024-01-27T09:26:03;16.05;;;6.03;;
37411;SDS011;23278;52.110;6.050;2024-01-27T09:28:30;16.17;;;5.47;;
37411;SDS011;23278;52.110;6.050;2024-01-27T09:30:56;16.77;;;6.35;;
37411;SDS011;23278;52.110;6.050;2024-01-27T09:33:22;18.73;;;7.05;;
37411;SDS011;23278;52.110;6.050;2024-01-27T09:35:49;17.38;;;7.05;;
37411;SDS011;23278;52.110;6.050;2024-01-27T09:38:15;17.92;;;5.20;;
37411;SDS011;23278;52.110;6.050;2024-01-27T09:40:41;13.95;;;5.05;;
37411;SDS011;23278;52.110;6.050;2024-01-27T09:43:07;13.07;;;5.43;;
37411;SDS011;23278;52.110;6.050;2024-01-27T09:45:38;11.52;;;4.93;;
37411;SDS011;23278;52.110;6.050;2024-01-27T09:48:05;9.43;;;5.32;;
37411;SDS011;23278;52.110;6.050;2024-01-27T09:50:35;15.32;;;4.93;;
37411;SDS011;23278;52.110;6.050;2024-01-27T09:53:02;11.07;;;5.20;;
37411;SDS011;23278;52.110;6.050;2024-01-27T09:55:33;10.75;;;4.72;;
37411;SDS011;23278;52.110;6.050;2024-01-27T09:57:59;10.93;;;5.47;;
37411;SDS011;23278;52.110;6.050;2024-01-27T10:00:25;10.52;;;4.63;;
37411;SDS011;23278;52.110;6.050;2024-01-27T10:02:54;11.75;;;4.13;;
37411;SDS011;23278;52.110;6.050;2024-01-27T10:05:20;11.90;;;4.13;;
37411;SDS011;23278;52.110;6.050;2024-01-27T10:07:46;14.73;;;4.40;;
37411;SDS011;23278;52.110;6.050;2024-01-27T10:10:13;15.38;;;4.47;;
37411;SDS011;23278;52.110;6.050;2024-01-27T10:12:40;10.60;;;4.38;;
37411;SDS011;23278;52.110;6.050;2024-01-27T10:15:19;14.20;;;4.47;;
37411;SDS011;23278;52.110;6.050;2024-01-27T10:17:46;8.35;;;3.58;;
37411;SDS011;23278;52.110;6.050;2024-01-27T10:20:12;6.30;;;3.53;;
37411;SDS011;23278;52.110;6.050;2024-01-27T10:22:44;12.90;;;4.63;;
37411;SDS011;23278;52.110;6.050;2024-01-27T10:25:11;10.07;;;4.28;;
37411;SDS011;23278;52.110;6.050;2024-01-27T10:27:37;11.43;;;3.42;;
37411;SDS011;23278;52.110;6.050;2024-01-27T10:30:04;14.60;;;4.50;;
37411;SDS011;23278;52.110;6.050;2024-01-27T10:32:31;15.57;;;4.78;;
37411;SDS011;23278;52.110;6.050;2024-01-27T10:35:06;8.02;;;3.95;;
37411;SDS011;23278;52.110;6.050;2024-01-27T10:37:38;10.23;;;4.68;;
37411;SDS011;23278;52.110;6.050;2024-01-27T10:40:08;11.90;;;4.72;;
37411;SDS011;23278;52.110;6.050;2024-01-27T10:42:35;11.20;;;3.92;;
37411;SDS011;23278;52.110;6.050;2024-01-27T10:45:02;10.23;;;4.55;;
37411;SDS011;23278;52.110;6.050;2024-01-27T10:47:30;9.15;;;3.95;;
37411;SDS011;23278;52.110;6.050;2024-01-27T10:49:58;9.75;;;3.50;;
37411;SDS011;23278;52.110;6.050;2024-01-27T10:52:25;8.48;;;3.63;;
37411;SDS011;23278;52.110;6.050;2024-01-27T10:55:01;9.68;;;4.22;;
37411;SDS011;23278;52.110;6.050;2024-01-27T10:57:35;8.57;;;3.83;;
37411;SDS011;23278;52.110;6.050;2024-01-27T11:00:03;11.38;;;3.75;;
37411;SDS011;23278;52.110;6.050;2024-01-27T11:02:35;11.38;;;4.22;;
37411;SDS011;23278;52.110;6.050;2024-01-27T11:05:02;8.30;;;3.20;;
37411;SDS011;23278;52.110;6.050;2024-01-27T11:07:32;14.38;;;4.55;;
37411;SDS011;23278;52.110;6.050;2024-01-27T11:09:59;9.60;;;4.15;;
37411;SDS011;23278;52.110;6.050;2024-01-27T11:12:26;12.85;;;4.05;;
37411;SDS011;23278;52.110;6.050;2024-01-27T11:14:53;8.73;;;4.05;;
37411;SDS011;23278;52.110;6.050;2024-01-27T11:17:19;11.18;;;3.42;;
37411;SDS011;23278;52.110;6.050;2024-01-27T11:19:45;20.05;;;4.13;;
37411;SDS011;23278;52.110;6.050;2024-01-27T11:27:41;12.07;;;3.97;;
37411;SDS011;23278;52.110;6.050;2024-01-27T11:30:25;6.30;;;3.15;;
37411;SDS011;23278;52.110;6.050;2024-01-27T11:32:54;9.55;;;3.45;;
37411;SDS011;23278;52.110;6.050;2024-01-27T11:35:23;12.57;;;3.83;;
37411;SDS011;23278;52.110;6.050;2024-01-27T11:37:49;7.63;;;3.40;;
37411;SDS011;23278;52.110;6.050;2024-01-27T11:40:15;8.75;;;3.05;;
37411;SDS011;23278;52.110;6.050;2024-01-27T11:42:42;10.35;;;4.35;;
37411;SDS011;23278;52.110;6.050;2024-01-27T11:45:13;8.98;;;3.80;;
37411;SDS011;23278;52.110;6.050;2024-01-27T11:47:39;7.75;;;3.17;;
37411;SDS011;23278;52.110;6.050;2024-01-27T11:50:05;8.02;;;3.50;;
37411;SDS011;23278;52.110;6.050;2024-01-27T11:52:33;11.60;;;3.92;;
37411;SDS011;23278;52.110;6.050;2024-01-27T11:54:59;8.65;;;2.83;;
37411;SDS011;23278;52.110;6.050;2024-01-27T11:57:26;8.30;;;3.33;;
37411;SDS011;23278;52.110;6.050;2024-01-27T11:59:53;7.35;;;3.97;;
37411;SDS011;23278;52.110;6.050;2024-01-27T12:02:19;8.38;;;2.97;;
37411;SDS011;23278;52.110;6.050;2024-01-27T12:04:47;6.70;;;2.70;;
37411;SDS011;23278;52.110;6.050;2024-01-27T12:07:13;10.52;;;3.08;;
37411;SDS011;23278;52.110;6.050;2024-01-27T12:09:40;6.82;;;2.97;;
37411;SDS011;23278;52.110;6.050;2024-01-27T12:12:06;9.52;;;2.88;;
37411;SDS011;23278;52.110;6.050;2024-01-27T12:14:40;8.45;;;2.95;;
37411;SDS011;23278;52.110;6.050;2024-01-27T12:17:10;9.50;;;2.72;;
37411;SDS011;23278;52.110;6.050;2024-01-27T12:19:36;9.05;;;3.15;;
37411;SDS011;23278;52.110;6.050;2024-01-27T12:22:20;9.00;;;2.85;;
37411;SDS011;23278;52.110;6.050;2024-01-27T12:24:48;10.07;;;3.65;;
37411;SDS011;23278;52.110;6.050;2024-01-27T12:27:15;10.32;;;3.67;;
37411;SDS011;23278;52.110;6.050;2024-01-27T12:29:42;8.90;;;2.97;;
37411;SDS011;23278;52.110;6.050;2024-01-27T12:32:08;8.27;;;3.58;;
37411;SDS011;23278;52.110;6.050;2024-01-27T12:34:39;8.50;;;3.15;;
37411;SDS011;23278;52.110;6.050;2024-01-27T12:37:08;18.58;;;4.53;;
37411;SDS011;23278;52.110;6.050;2024-01-27T12:39:37;9.27;;;3.35;;
37411;SDS011;23278;52.110;6.050;2024-01-27T12:42:05;11.95;;;3.83;;
37411;SDS011;23278;52.110;6.050;2024-01-27T12:44:31;10.32;;;3.50;;
37411;SDS011;23278;52.110;6.050;2024-01-27T12:46:57;10.18;;;3.28;;
37411;SDS011;23278;52.110;6.050;2024-01-27T12:49:23;8.73;;;3.33;;
37411;SDS011;23278;52.110;6.050;2024-01-27T12:51:49;13.13;;;3.88;;
37411;SDS011;23278;52.110;6.050;2024-01-27T12:54:16;13.93;;;3.95;;
37411;SDS011;23278;52.110;6.050;2024-01-27T12:56:42;7.93;;;3.40;;
37411;SDS011;23278;52.110;6.050;2024-01-27T12:59:08;7.93;;;3.38;;
37411;SDS011;23278;52.110;6.050;2024-01-27T13:01:34;9.52;;;3.28;;
37411;SDS011;23278;52.110;6.050;2024-01-27T13:04:00;6.57;;;3.67;;
37411;SDS011;23278;52.110;6.050;2024-01-27T13:06:26;9.73;;;4.40;;
37411;SDS011;23278;52.110;6.050;2024-01-27T13:08:52;10.77;;;3.00;;
37411;SDS011;23278;52.110;6.050;2024-01-27T13:11:19;9.18;;;3.30;;
37411;SDS011;23278;52.110;6.050;2024-01-27T13:13:45;7.57;;;4.20;;
37411;SDS011;23278;52.110;6.050;2024-01-27T13:16:11;11.25;;;3.65;;
37411;SDS011;23278;52.110;6.050;2024-01-27T13:18:37;9.55;;;3.58;;
37411;SDS011;23278;52.110;6.050;2024-01-27T13:21:03;8.02;;;3.13;;
37411;SDS011;23278;52.110;6.050;2024-01-27T13:23:31;9.43;;;3.05;;
37411;SDS011;23278;52.110;6.050;2024-01-27T13:25:58;8.25;;;3.03;;
37411;SDS011;23278;52.110;6.050;2024-01-27T13:28:24;9.75;;;3.85;;
37411;SDS011;23278;52.110;6.050;2024-01-27T13:30:50;10.40;;;3.70;;
37411;SDS011;23278;52.110;6.050;2024-01-27T13:33:16;7.57;;;2.78;;
37411;SDS011;23278;52.110;6.050;2024-01-27T13:35:42;8.63;;;3.60;;
37411;SDS011;23278;52.110;6.050;2024-01-27T13:38:15;12.77;;;4.30;;
37411;SDS011;23278;52.110;6.050;2024-01-27T13:40:41;8.60;;;3.28;;
37411;SDS011;23278;52.110;6.050;2024-01-27T13:43:08;7.32;;;2.72;;
37411;SDS011;23278;52.110;6.050;2024-01-27T13:45:34;10.55;;;4.13;;
37411;SDS011;23278;52.110;6.050;2024-01-27T13:48:00;9.98;;;3.63;;
37411;SDS011;23278;52.110;6.050;2024-01-27T13:50:26;14.10;;;2.85;;
37411;SDS011;23278;52.110;6.050;2024-01-27T13:52:52;10.60;;;3.67;;
37411;SDS011;23278;52.110;6.050;2024-01-27T13:55:18;7.85;;;2.70;;
37411;SDS011;23278;52.110;6.050;2024-01-27T13:57:44;8.65;;;3.05;;
37411;SDS011;23278;52.110;6.050;2024-01-27T14:00:10;10.35;;;3.25;;
37411;SDS011;23278;52.110;6.050;2024-01-27T14:02:37;11.38;;;3.03;;
37411;SDS011;23278;52.110;6.050;2024-01-27T14:05:03;11.25;;;3.78;;
37411;SDS011;23278;52.110;6.050;2024-01-27T14:07:29;10.85;;;2.95;;
37411;SDS011;23278;52.110;6.050;2024-01-27T14:09:57;8.90;;;2.60;;
37411;SDS011;23278;52.110;6.050;2024-01-27T14:12:23;13.13;;;3.13;;
37411;SDS011;23278;52.110;6.050;2024-01-27T14:14:49;11.85;;;2.72;;
37411;SDS011;23278;52.110;6.050;2024-01-27T14:17:15;11.25;;;2.85;;
37411;SDS011;23278;52.110;6.050;2024-01-27T14:19:42;8.55;;;3.28;;
37411;SDS011;23278;52.110;6.050;2024-01-27T14:22:08;9.30;;;2.63;;
37411;SDS011;23278;52.110;6.050;2024-01-27T14:24:34;11.07;;;3.47;;
37411;SDS011;23278;52.110;6.050;2024-01-27T14:27:00;6.72;;;2.83;;
37411;SDS011;23278;52.110;6.050;2024-01-27T14:29:26;10.25;;;3.55;;
37411;SDS011;23278;52.110;6.050;2024-01-27T14:31:52;9.25;;;3.22;;
37411;SDS011;23278;52.110;6.050;2024-01-27T14:34:18;8.98;;;2.90;;
37411;SDS011;23278;52.110;6.050;2024-01-27T14:36:44;6.30;;;3.17;;